Time;durP1;ratioP1;P1;durP2;ratioP2;P2;SDS_P1;SDS_P2;PMS_P1;PMS_P2;Temp;Humidity;BMP_temperature;BMP_pressure;BME280_temperature;BME280_humidity;BME280_pressure;Samples;Min_cycle;Max_cycle;Signal;HPM_P1;HPM_P2
2023/06/16 00:01:36;;;;;;;2.83;2.57;;;;;;;16.33;44.90;98900.88;5175957;27;42748;-75
2023/06/16 00:04:05;;;;;;;4.13;2.53;;;;;;;16.20;45.20;98894.88;5175459;27;42276;-76
2023/06/16 00:06:33;;;;;;;2.77;2.43;;;;;;;16.23;44.84;98905.31;5157766;27;39095;-75
2023/06/16 00:09:01;;;;;;;3.60;2.67;;;;;;;16.20;45.04;98905.56;5175486;27;41589;-75
2023/06/16 00:11:29;;;;;;;3.43;2.63;;;;;;;16.08;44.86;98886.91;5174901;27;42846;-75
2023/06/16 00:13:57;;;;;;;2.90;2.50;;;;;;;16.13;44.71;98903.44;5157796;27;41001;-76
2023/06/16 00:16:26;;;;;;;2.70;2.50;;;;;;;16.08;44.85;98902.94;5176562;27;40948;-74
2023/06/16 00:18:57;;;;;;;3.90;2.47;;;;;;;16.06;44.80;98915.63;5175208;27;41823;-75
2023/06/16 00:21:27;;;;;;;3.27;2.77;;;;;;;16.03;44.89;98905.19;5157618;27;43385;-75
2023/06/16 00:23:54;;;;;;;3.20;2.97;;;;;;;15.99;45.20;98901.06;5157471;27;41448;-75
2023/06/16 00:26:23;;;;;;;2.70;2.40;;;;;;;15.94;45.34;98905.13;5157353;27;39246;-74
2023/06/16 00:28:51;;;;;;;2.40;2.20;;;;;;;15.88;45.70;98901.13;5174955;27;40944;-74
2023/06/16 00:31:19;;;;;;;4.03;2.90;;;;;;;15.82;45.86;98901.66;5174754;27;42821;-74
2023/06/16 00:33:48;;;;;;;2.67;2.43;;;;;;;15.75;46.28;98895.94;5158201;27;40999;-74
2023/06/16 00:36:17;;;;;;;4.20;2.50;;;;;;;15.70;46.59;98902.66;5158028;27;39031;-74
2023/06/16 00:38:45;;;;;;;2.80;2.50;;;;;;;15.60;46.85;98891.03;5175922;27;42641;-75
2023/06/16 00:41:13;;;;;;;3.30;2.90;;;;;;;15.60;46.51;98901.69;5175526;27;42872;-74
2023/06/16 00:43:41;;;;;;;2.63;2.37;;;;;;;15.56;46.37;98897.59;5175395;27;42301;-75
2023/06/16 00:46:10;;;;;;;3.30;3.00;;;;;;;15.54;46.73;98896.84;5158004;27;40171;-75
2023/06/16 00:48:38;;;;;;;3.30;2.73;;;;;;;15.49;46.80;98893.69;5175462;27;42162;-75
2023/06/16 00:51:09;;;;;;;2.80;2.60;;;;;;;15.50;47.13;98890.06;5175363;27;43746;-74
2023/06/16 00:53:38;;;;;;;3.20;2.87;;;;;;;15.46;47.24;98884.97;5175604;27;44112;-74
2023/06/16 00:56:07;;;;;;;2.97;2.20;;;;;;;15.49;47.15;98893.69;5158216;27;39043;-74
2023/06/16 00:58:36;;;;;;;3.40;2.80;;;;;;;15.48;47.59;98882.16;5175627;27;41705;-74
2023/06/16 01:01:05;;;;;;;4.73;2.60;;;;;;;15.48;47.46;98886.66;5173981;27;42702;-75
2023/06/16 01:03:33;;;;;;;2.70;2.43;;;;;;;15.46;47.72;98887.63;5173802;27;42947;-74
2023/06/16 01:06:08;;;;;;;3.00;2.70;;;;;;;15.35;47.43;98865.47;5175413;27;40768;-75
2023/06/16 01:08:44;;;;;;;3.80;2.90;;;;;;;15.37;47.94;98863.53;5156620;27;40802;-74
2023/06/16 01:11:21;;;;;;;3.73;2.80;;;;;;;15.43;47.84;98879.91;5173837;27;42930;-74
2023/06/16 01:13:58;;;;;;;3.30;3.00;;;;;;;15.39;47.53;98881.13;5156805;27;43507;-75
2023/06/16 01:16:30;;;;;;;3.03;2.70;;;;;;;15.38;47.85;98887.41;5156916;27;39302;-74
2023/06/16 01:19:03;;;;;;;4.00;2.70;;;;;;;15.34;47.40;98880.63;5171054;27;41853;-74
2023/06/16 01:21:39;;;;;;;2.90;2.53;;;;;;;14.98;47.65;98832.94;5174058;27;42775;-75
2023/06/16 01:24:10;;;;;;;3.43;2.87;;;;;;;15.30;47.77;98883.69;5156826;27;41030;-74
2023/06/16 01:26:44;;;;;;;3.47;3.17;;;;;;;15.24;47.69;98879.69;5156925;27;39271;-74
2023/06/16 01:29:14;;;;;;;3.13;2.83;;;;;;;15.23;48.00;98871.81;5156583;27;41832;-75
2023/06/16 01:31:43;;;;;;;3.00;2.67;;;;;;;15.19;47.80;98884.56;5156371;27;42003;-76
2023/06/16 01:34:13;;;;;;;3.00;2.70;;;;;;;15.18;47.77;98879.34;5156679;27;41203;-75
2023/06/16 01:36:44;;;;;;;2.77;2.57;;;;;;;15.14;47.89;98878.75;5174851;27;40915;-75
2023/06/16 01:39:16;;;;;;;2.93;2.63;;;;;;;15.04;48.30;98867.13;5174759;27;41542;-75
2023/06/16 01:41:45;;;;;;;2.63;2.43;;;;;;;15.07;48.13;98883.75;5172789;27;43578;-75
2023/06/16 01:44:14;;;;;;;2.73;2.43;;;;;;;15.04;48.02;98880.47;5156755;27;41384;-73
2023/06/16 01:46:42;;;;;;;2.73;2.53;;;;;;;15.01;48.23;98878.88;5157351;27;38907;-74
2023/06/16 01:49:12;;;;;;;3.50;2.90;;;;;;;14.98;48.43;98878.28;5174767;27;41749;-74
2023/06/16 01:51:40;;;;;;;2.90;2.70;;;;;;;14.89;48.83;98871.00;5156929;27;42164;-74
2023/06/16 01:54:08;;;;;;;4.33;2.80;;;;;;;14.86;49.13;98868.59;5174097;27;42411;-75
2023/06/16 01:56:37;;;;;;;2.83;2.40;;;;;;;14.81;48.99;98876.13;5175984;27;40139;-74
2023/06/16 01:59:05;;;;;;;3.30;2.97;;;;;;;14.69;49.43;98876.13;5156932;27;42108;-76
2023/06/16 02:01:40;;;;;;;2.80;2.57;;;;;;;14.62;49.55;98866.91;5174181;27;43195;-75
2023/06/16 02:04:12;;;;;;;3.53;3.23;;;;;;;14.59;49.89;98877.78;5156558;27;42385;-75
2023/06/16 02:06:45;;;;;;;3.83;2.90;;;;;;;14.53;50.71;98872.97;5171584;27;40931;-75
2023/06/16 02:09:16;;;;;;;2.60;2.40;;;;;;;14.05;50.84;98808.34;5170097;27;42542;-75
2023/06/16 02:11:47;;;;;;;4.60;3.00;;;;;;;14.31;50.31;98856.94;5170174;27;43427;-75
2023/06/16 02:14:18;;;;;;;2.90;2.60;;;;;;;14.34;50.19;98873.50;5155752;27;42430;-76
2023/06/16 02:16:45;;;;;;;3.00;2.43;;;;;;;14.30;50.35;98876.53;5171058;27;40896;-74
2023/06/16 02:19:14;;;;;;;3.27;2.97;;;;;;;14.26;50.52;98869.75;5155394;27;40730;-76
2023/06/16 02:21:42;;;;;;;2.80;2.50;;;;;;;14.13;50.47;98853.84;5173166;27;42768;-74
2023/06/16 02:24:10;;;;;;;4.43;2.87;;;;;;;14.07;50.19;98842.84;5172735;27;40894;-75
2023/06/16 02:26:38;;;;;;;3.60;2.87;;;;;;;14.17;50.13;98870.47;5173202;27;39811;-75
2023/06/16 02:29:07;;;;;;;3.73;3.00;;;;;;;14.14;50.18;98876.00;5155485;27;40752;-74
2023/06/16 02:31:35;;;;;;;3.00;2.70;;;;;;;14.13;50.16;98874.31;5155598;27;41709;-74
2023/06/16 02:34:02;;;;;;;2.93;2.63;;;;;;;14.12;50.30;98877.94;5173679;27;43012;-75
2023/06/16 02:36:33;;;;;;;3.53;2.93;;;;;;;14.10;49.97;98879.88;5156214;27;39955;-76
2023/06/16 02:39:00;;;;;;;2.83;2.50;;;;;;;14.08;49.89;98876.50;5173924;27;41742;-74
2023/06/16 02:41:28;;;;;;;2.63;2.43;;;;;;;14.05;49.99;98876.72;5173639;27;42306;-74
2023/06/16 02:43:57;;;;;;;3.73;3.37;;;;;;;14.02;50.13;98875.13;5156266;27;42282;-76
2023/06/16 02:46:27;;;;;;;3.03;2.73;;;;;;;13.99;49.92;98881.53;5156324;27;38914;-75
2023/06/16 02:48:54;;;;;;;3.13;2.83;;;;;;;13.98;50.27;98879.84;5174561;27;42729;-74
2023/06/16 02:51:22;;;;;;;3.50;2.70;;;;;;;13.97;50.53;98872.81;5155706;27;42643;-75
2023/06/16 02:53:51;;;;;;;2.70;2.50;;;;;;;13.97;50.40;98875.47;5173757;27;42831;-73
2023/06/16 02:56:21;;;;;;;3.10;2.57;;;;;;;13.87;50.33;98853.19;5155990;27;38850;-74
2023/06/16 02:58:48;;;;;;;2.77;2.57;;;;;;;13.97;50.58;98872.81;5172274;27;42473;-75
2023/06/16 03:01:16;;;;;;;4.23;2.80;;;;;;;13.96;50.84;98868.47;5154129;27;41980;-73
2023/06/16 03:04:08;;;;;;;3.43;2.70;;;;;;;13.97;51.27;98859.50;5173544;27;42231;-73
2023/06/16 03:06:49;;;;;;;3.23;2.93;;;;;;;13.97;51.83;98856.84;5168224;27;40723;-74
2023/06/16 03:09:30;;;;;;;3.00;2.70;;;;;;;13.98;51.52;98865.69;5169677;27;41689;-75
2023/06/16 03:11:58;;;;;;;2.93;2.47;;;;;;;13.99;51.40;98856.72;5172291;27;43769;-74
2023/06/16 03:14:27;;;;;;;3.20;2.90;;;;;;;13.95;52.19;98849.97;5171761;27;42939;-75
2023/06/16 03:17:03;;;;;;;3.23;2.83;;;;;;;13.98;51.83;98860.34;5155226;27;39854;-73
2023/06/16 03:19:32;;;;;;;3.13;2.80;;;;;;;13.96;52.29;98857.84;5172130;27;42681;-76
2023/06/16 03:22:00;;;;;;;3.20;2.90;;;;;;;13.94;52.51;98865.09;5172108;27;43789;-75
2023/06/16 03:24:38;;;;;;;2.93;2.67;;;;;;;13.91;52.37;98854.66;5154689;27;42234;-74
2023/06/16 03:27:08;;;;;;;4.83;3.17;;;;;;;13.91;52.24;98869.78;5154539;27;40209;-75
2023/06/16 03:29:56;;;;;;;3.13;2.83;;;;;;;13.86;52.14;98862.13;5169898;27;42600;-75
2023/06/16 03:32:24;;;;;;;3.10;2.80;;;;;;;13.87;52.49;98869.16;5154476;27;42848;-75
2023/06/16 03:34:55;;;;;;;3.80;2.80;;;;;;;13.86;52.56;98869.25;5155438;27;43502;-73
2023/06/16 03:37:23;;;;;;;4.03;3.40;;;;;;;13.84;52.70;98864.09;5154842;27;39463;-73
2023/06/16 03:39:51;;;;;;;2.93;2.73;;;;;;;13.83;52.85;98861.53;5172522;27;42607;-74
2023/06/16 03:42:19;;;;;;;3.67;3.10;;;;;;;13.82;52.85;98871.34;5173103;27;43505;-75
2023/06/16 03:44:47;;;;;;;2.77;2.57;;;;;;;13.60;52.74;98828.66;5155132;27;41409;-74
2023/06/16 03:47:16;;;;;;;3.43;2.47;;;;;;;13.84;52.61;98864.09;5173051;27;40997;-74
2023/06/16 03:49:45;;;;;;;4.50;3.20;;;;;;;13.88;53.33;98865.53;5155292;27;41757;-74
2023/06/16 03:52:14;;;;;;;5.27;3.27;;;;;;;13.93;53.11;98868.72;5155144;27;41401;-74
2023/06/16 03:54:42;;;;;;;3.43;3.13;;;;;;;14.00;53.32;98869.06;5154827;27;41243;-75
2023/06/16 03:57:10;;;;;;;2.90;2.60;;;;;;;14.06;53.28;98868.63;5155461;27;40020;-75
2023/06/16 03:59:40;;;;;;;3.40;3.10;;;;;;;14.17;53.03;98870.47;5172253;27;42726;-73
2023/06/16 04:02:08;;;;;;;3.13;2.73;;;;;;;14.25;53.21;98876.03;5153482;27;41772;-74
2023/06/16 04:04:38;;;;;;;3.10;2.80;;;;;;;14.31;53.07;98870.25;5153468;27;41919;-74
2023/06/16 04:07:07;;;;;;;2.97;2.67;;;;;;;14.41;53.16;98873.91;5171735;27;40845;-74
2023/06/16 04:09:37;;;;;;;3.43;3.07;;;;;;;14.31;52.81;98857.78;5154039;27;42387;-73
2023/06/16 04:12:05;;;;;;;2.43;2.20;;;;;;;14.55;53.08;98876.34;5171484;27;43071;-75
2023/06/16 04:14:36;;;;;;;3.87;3.20;;;;;;;14.66;52.76;98884.34;5168813;27;42229;-74
2023/06/16 04:17:04;;;;;;;3.30;3.00;;;;;;;14.63;52.74;98865.94;5171564;27;39929;-74
2023/06/16 04:19:32;;;;;;;3.67;2.83;;;;;;;14.81;52.57;98882.31;5174712;27;40639;-75
2023/06/16 04:22:00;;;;;;;3.10;2.77;;;;;;;14.86;53.03;98884.59;5157532;27;41856;-75
2023/06/16 04:24:37;;;;;;;3.57;3.23;;;;;;;14.80;53.12;98875.28;5172329;27;43220;-74
2023/06/16 04:27:06;;;;;;;3.50;3.20;;;;;;;14.78;53.89;98876.34;5157568;27;38887;-73
2023/06/16 04:29:41;;;;;;;3.63;3.00;;;;;;;14.84;53.77;98907.84;5174381;27;41676;-74
2023/06/16 04:32:11;;;;;;;3.77;3.40;;;;;;;14.78;54.11;98906.53;5171724;27;43829;-74
2023/06/16 04:34:40;;;;;;;5.30;3.23;;;;;;;14.71;54.40;98908.81;5158536;27;41566;-73
2023/06/16 04:37:11;;;;;;;3.20;2.90;;;;;;;14.69;53.78;98902.78;5158212;27;39095;-75
2023/06/16 04:39:41;;;;;;;3.47;3.17;;;;;;;14.66;53.80;98894.16;5175489;27;41800;-74
2023/06/16 04:42:11;;;;;;;3.63;3.20;;;;;;;14.68;53.77;98903.75;5158364;27;42835;-75
2023/06/16 04:44:41;;;;;;;3.23;2.93;;;;;;;14.64;53.82;98902.28;5175503;27;43175;-73
2023/06/16 04:47:09;;;;;;;3.87;3.03;;;;;;;14.67;53.83;98899.38;5158355;27;38899;-75
2023/06/16 04:49:37;;;;;;;3.53;2.87;;;;;;;14.70;53.49;98896.47;5157962;27;41679;-75
2023/06/16 04:52:06;;;;;;;3.80;3.33;;;;;;;14.73;53.43;98895.38;5175605;27;42701;-77
2023/06/16 04:54:35;;;;;;;3.13;2.80;;;;;;;14.80;53.13;98901.09;5157638;27;41275;-76
2023/06/16 04:57:06;;;;;;;2.90;2.67;;;;;;;14.87;53.31;98905.78;5175663;27;40860;-75
2023/06/16 04:59:35;;;;;;;3.30;3.00;;;;;;;14.88;52.80;98877.31;5172507;27;42800;-77
2023/06/16 05:02:02;;;;;;;3.03;2.73;;;;;;;15.13;53.00;98887.72;5174592;27;43814;-76
2023/06/16 05:04:31;;;;;;;5.13;3.47;;;;;;;15.31;52.89;98899.56;5173474;27;42461;-74
2023/06/16 05:06:58;;;;;;;5.07;3.40;;;;;;;15.63;53.00;98896.13;5175694;27;39933;-74
2023/06/16 05:09:26;;;;;;;5.73;3.37;;;;;;;15.87;52.88;98894.06;5156608;27;40933;-74
2023/06/16 05:11:54;;;;;;;5.27;3.33;;;;;;;16.05;52.36;98900.56;5174381;27;42798;-76
2023/06/16 05:14:24;;;;;;;4.87;3.50;;;;;;;16.24;52.42;98901.66;5175413;27;42755;-75
2023/06/16 05:16:52;;;;;;;3.77;3.27;;;;;;;16.40;51.98;98907.41;5156854;27;39980;-76
2023/06/16 05:19:19;;;;;;;5.47;3.40;;;;;;;16.54;51.83;98907.06;5174025;27;42468;-77
2023/06/16 05:21:55;;;;;;;4.57;3.47;;;;;;;16.66;51.91;98907.88;5170990;27;42506;-75
2023/06/16 05:24:24;;;;;;;4.03;3.63;;;;;;;16.70;51.56;98898.56;5173762;27;42988;-77
2023/06/16 05:26:52;;;;;;;6.50;3.87;;;;;;;16.72;51.33;98905.50;5174077;27;40175;-76
2023/06/16 05:29:19;;;;;;;7.00;4.93;;;;;;;16.75;51.59;98899.88;5172924;27;41991;-77
2023/06/16 05:31:49;;;;;;;5.07;3.33;;;;;;;16.76;51.32;98904.25;5174007;27;43891;-77
2023/06/16 05:34:17;;;;;;;7.63;4.20;;;;;;;16.78;51.12;98913.00;5174497;27;42207;-75
2023/06/16 05:36:44;;;;;;;5.67;4.00;;;;;;;16.81;51.77;98918.06;5157456;27;39171;-76
2023/06/16 05:39:16;;;;;;;5.13;3.77;;;;;;;16.83;51.03;98916.09;5157560;27;41501;-76
2023/06/16 05:41:44;;;;;;;4.20;3.20;;;;;;;16.86;51.30;98915.84;5157442;27;43087;-77
2023/06/16 05:44:15;;;;;;;5.93;4.20;;;;;;;16.94;51.02;98922.38;5157044;27;41438;-75
2023/06/16 05:46:44;;;;;;;6.47;4.07;;;;;;;17.08;50.92;98925.50;5174727;27;41748;-77
2023/06/16 05:49:15;;;;;;;5.90;3.93;;;;;;;17.23;50.52;98912.59;5156960;27;41014;-76
2023/06/16 05:51:43;;;;;;;5.70;4.70;;;;;;;17.43;50.14;98925.03;5156776;27;42112;-77
2023/06/16 05:54:10;;;;;;;4.33;3.93;;;;;;;17.63;49.77;98925.09;5156014;27;42174;-76
2023/06/16 05:56:39;;;;;;;4.83;3.57;;;;;;;17.82;49.40;98922.47;5173995;27;40928;-76
2023/06/16 05:59:08;;;;;;;5.23;3.83;;;;;;;17.99;48.91;98924.47;5156245;27;41142;-74
2023/06/16 06:01:35;;;;;;;6.00;3.87;;;;;;;18.13;48.83;98928.56;5173366;27;42703;-75
2023/06/16 06:04:04;;;;;;;5.03;3.70;;;;;;;18.28;48.59;98933.34;5172657;27;43165;-75
2023/06/16 06:06:33;;;;;;;6.20;4.63;;;;;;;18.43;48.19;98941.78;5155684;27;38535;-76
2023/06/16 06:09:02;;;;;;;5.50;3.63;;;;;;;18.56;48.21;98944.16;5173382;27;41809;-75
2023/06/16 06:11:30;;;;;;;6.93;4.00;;;;;;;18.68;48.01;98945.72;5155801;27;42800;-75
2023/06/16 06:13:58;;;;;;;6.77;4.30;;;;;;;18.85;47.54;98947.66;5155888;27;42175;-75
2023/06/16 06:16:27;;;;;;;4.33;3.93;;;;;;;19.00;47.35;98950.72;5155581;27;38606;-74
2023/06/16 06:18:55;;;;;;;7.33;4.30;;;;;;;19.19;46.91;98960.53;5155882;27;40490;-75
2023/06/16 06:21:25;;;;;;;6.40;3.83;;;;;;;19.33;46.69;98951.97;5155792;27;42004;-75
2023/06/16 06:23:55;;;;;;;7.90;4.47;;;;;;;19.63;46.35;98964.31;5173230;27;43248;-76
2023/06/16 06:26:23;;;;;;;7.73;4.60;;;;;;;19.79;45.69;98969.00;5172744;27;40216;-76
2023/06/16 06:28:50;;;;;;;5.40;3.70;;;;;;;19.97;45.66;98969.88;5173044;27;41497;-74
2023/06/16 06:31:18;;;;;;;5.77;4.00;;;;;;;20.05;44.83;98967.25;5155038;27;42013;-74
2023/06/16 06:33:46;;;;;;;6.40;4.07;;;;;;;20.23;44.90;98978.88;5155851;27;41290;-75
2023/06/16 06:36:22;;;;;;;5.37;3.87;;;;;;;20.47;44.35;98985.50;5156030;27;41037;-74
2023/06/16 06:38:50;;;;;;;4.47;3.80;;;;;;;20.69;44.28;98985.00;5173933;27;40900;-76
2023/06/16 06:41:20;;;;;;;3.93;3.53;;;;;;;20.97;43.59;98989.25;5174451;27;42793;-76
2023/06/16 06:43:48;;;;;;;4.80;4.00;;;;;;;21.46;43.45;99005.72;5156162;27;41142;-75
2023/06/16 06:46:17;;;;;;;7.23;4.10;;;;;;;21.73;42.46;99001.97;5155660;27;39371;-75
2023/06/16 06:48:46;;;;;;;5.30;3.73;;;;;;;21.92;42.45;98998.97;5156221;27;42213;-75
2023/06/16 06:51:16;;;;;;;3.90;3.57;;;;;;;21.97;41.60;98999.34;5155901;27;41826;-76
2023/06/16 06:53:44;;;;;;;4.17;3.77;;;;;;;22.15;41.51;99015.41;5172734;27;42684;-75
2023/06/16 06:56:14;;;;;;;5.67;3.70;;;;;;;22.24;41.70;99005.50;5171444;27;40349;-74
2023/06/16 06:58:43;;;;;;;5.00;3.70;;;;;;;22.33;41.51;99010.75;5173439;27;42579;-76
2023/06/16 07:01:11;;;;;;;4.70;3.90;;;;;;;22.46;41.13;99011.09;5171868;27;42842;-76
2023/06/16 07:03:39;;;;;;;3.80;3.43;;;;;;;22.65;41.60;99011.75;5172507;27;42021;-75
2023/06/16 07:06:06;;;;;;;4.00;3.60;;;;;;;22.87;41.63;99009.25;5174170;27;40338;-76
2023/06/16 07:08:34;;;;;;;5.03;4.27;;;;;;;23.04;40.58;99015.47;5154955;27;40755;-74
2023/06/16 07:11:02;;;;;;;4.10;3.70;;;;;;;23.15;40.75;99007.00;5172131;27;42911;-75
2023/06/16 07:13:30;;;;;;;6.13;4.00;;;;;;;23.46;40.62;99014.38;5172254;27;42489;-75
2023/06/16 07:15:59;;;;;;;4.83;3.67;;;;;;;23.61;40.39;99009.97;5154395;27;41053;-75
2023/06/16 07:18:27;;;;;;;4.53;3.60;;;;;;;23.83;40.27;99022.72;5172352;27;42755;-76
2023/06/16 07:20:55;;;;;;;4.10;3.63;;;;;;;24.03;40.27;99022.28;5172106;27;43682;-76
2023/06/16 07:23:22;;;;;;;5.30;4.30;;;;;;;24.10;39.82;99021.41;5154550;27;42477;-75
2023/06/16 07:25:50;;;;;;;8.77;4.10;;;;;;;24.26;39.51;99028.59;5172134;27;40578;-75
2023/06/16 07:28:17;;;;;;;4.40;4.03;;;;;;;24.41;38.65;99037.63;5154632;27;41697;-75
2023/06/16 07:30:45;;;;;;;5.60;4.27;;;;;;;24.70;38.93;99031.50;5171813;27;41859;-76
2023/06/16 07:33:14;;;;;;;4.40;3.80;;;;;;;25.16;38.11;99045.00;5172168;27;41514;-75
2023/06/16 07:35:42;;;;;;;4.60;4.00;;;;;;;25.77;37.17;99052.00;5172700;27;40120;-76
2023/06/16 07:38:10;;;;;;;4.70;4.20;;;;;;;26.22;36.15;99050.03;5174371;27;41787;-75
2023/06/16 07:40:38;;;;;;;5.57;3.63;;;;;;;26.37;35.63;99048.16;5155037;27;43246;-75
2023/06/16 07:43:06;;;;;;;7.00;3.80;;;;;;;26.44;35.37;99049.09;5173109;27;43062;-76
2023/06/16 07:45:34;;;;;;;4.80;4.00;;;;;;;26.57;34.76;99059.25;5172468;27;38973;-76
2023/06/16 07:48:02;;;;;;;7.20;4.07;;;;;;;26.78;34.45;99054.66;5172818;27;42064;-76
2023/06/16 07:50:31;;;;;;;4.33;3.93;;;;;;;27.44;33.80;99063.41;5172732;27;42810;-76
2023/06/16 07:52:59;;;;;;;4.60;3.80;;;;;;;28.56;32.07;99068.59;5175380;27;41887;-75
2023/06/16 07:55:26;;;;;;;4.20;3.87;;;;;;;29.79;30.46;99080.84;5177628;27;39942;-76
2023/06/16 07:57:54;;;;;;;4.90;3.97;;;;;;;30.77;29.38;99076.88;5176777;27;40950;-77
2023/06/16 08:00:22;;;;;;;5.03;3.80;;;;;;;31.71;27.81;99087.72;5177204;27;42745;-77
2023/06/16 08:02:50;;;;;;;5.00;3.80;;;;;;;32.82;26.86;99097.56;5174601;27;42640;-76
2023/06/16 08:05:18;;;;;;;4.43;4.00;;;;;;;34.19;25.38;99098.16;5157732;27;38706;-77
2023/06/16 08:07:47;;;;;;;5.03;4.53;;;;;;;35.59;23.49;99105.81;5157689;27;42048;-77
2023/06/16 08:10:19;;;;;;;4.95;4.18;;;;;;;36.87;22.73;99107.25;5175105;27;41643;-77
2023/06/16 08:12:49;;;;;;;4.38;3.75;;;;;;;38.00;21.33;99116.25;5172203;27;42428;-76
2023/06/16 08:15:17;;;;;;;4.50;3.25;;;;;;;38.96;20.55;99112.22;5176359;27;41853;-77
2023/06/16 08:17:46;;;;;;;4.75;3.42;;;;;;;39.90;20.10;99117.28;5157636;27;43509;-77
2023/06/16 08:20:13;;;;;;;3.65;3.35;;;;;;;40.52;18.95;99110.44;5174609;27;43283;-77
2023/06/16 08:22:41;;;;;;;4.80;3.67;;;;;;;40.85;18.76;99111.66;5175007;27;42422;-78
2023/06/16 08:25:10;;;;;;;4.35;3.95;;;;;;;40.87;18.74;99101.91;5157266;27;38905;-76
2023/06/16 08:27:38;;;;;;;4.97;3.15;;;;;;;40.75;19.04;99098.66;5174915;27;40897;-78
2023/06/16 08:30:09;;;;;;;5.13;4.07;;;;;;;40.66;18.70;99103.13;5174822;27;43435;-76
2023/06/16 08:32:36;;;;;;;4.28;3.92;;;;;;;40.41;18.52;99100.50;5157676;27;42620;-78
2023/06/16 08:35:05;;;;;;;4.80;3.97;;;;;;;39.66;18.34;99099.56;5158260;27;40055;-78
2023/06/16 08:37:33;;;;;;;4.55;3.33;;;;;;;39.09;18.86;99095.09;5175538;27;40359;-77
2023/06/16 08:40:01;;;;;;;4.93;3.55;;;;;;;38.44;19.32;99093.81;5175971;27;41624;-76
2023/06/16 08:42:31;;;;;;;4.20;3.20;;;;;;;37.70;20.21;99082.88;5175774;27;43183;-76
2023/06/16 08:45:03;;;;;;;4.97;3.92;;;;;;;37.32;20.43;99068.22;5158324;27;38811;-76
2023/06/16 08:47:31;;;;;;;6.53;3.95;;;;;;;37.01;20.31;99078.13;5173806;27;41677;-77
2023/06/16 08:49:58;;;;;;;3.90;3.60;;;;;;;36.52;20.92;99066.28;5175491;27;43474;-76
2023/06/16 08:52:28;;;;;;;5.68;3.60;;;;;;;36.04;21.42;99071.72;5175477;27;41438;-78
2023/06/16 08:55:01;;;;;;;3.90;3.60;;;;;;;35.63;21.48;99073.88;5158114;27;39981;-76
2023/06/16 08:57:33;;;;;;;4.10;3.70;;;;;;;35.27;21.49;99065.06;5158243;27;40565;-77
2023/06/16 09:00:02;;;;;;;5.03;3.70;;;;;;;34.93;22.25;99052.34;5173026;27;42741;-76
2023/06/16 09:02:31;;;;;;;4.53;4.00;;;;;;;34.98;22.43;99057.97;5156673;27;42616;-75
2023/06/16 09:04:59;;;;;;;3.73;3.43;;;;;;;35.37;22.17;99047.88;5172454;27;41696;-76
2023/06/16 09:07:27;;;;;;;4.93;3.90;;;;;;;35.61;21.52;99054.00;5175691;27;41701;-78
2023/06/16 09:09:55;;;;;;;5.17;3.90;;;;;;;35.40;22.54;99052.88;5156731;27;41537;-78
2023/06/16 09:12:23;;;;;;;3.83;3.53;;;;;;;35.20;22.38;99050.63;5156809;27;42183;-78
2023/06/16 09:14:52;;;;;;;4.63;3.73;;;;;;;35.31;21.68;99042.53;5174079;27;39979;-77
2023/06/16 09:17:24;;;;;;;4.23;3.83;;;;;;;36.16;21.44;99058.66;5175676;27;41833;-77
2023/06/16 09:19:53;;;;;;;4.30;3.90;;;;;;;36.11;21.14;99042.03;5156398;27;42717;-77
2023/06/16 09:22:26;;;;;;;3.87;3.50;;;;;;;35.88;22.08;99065.16;5174423;27;42285;-76
2023/06/16 09:24:55;;;;;;;3.87;3.50;;;;;;;35.96;20.99;99057.31;5173864;27;39088;-78
2023/06/16 09:27:25;;;;;;;4.27;3.87;;;;;;;35.50;21.88;99046.69;5173720;27;41072;-77
2023/06/16 09:29:58;;;;;;;6.20;3.67;;;;;;;35.48;21.81;99054.38;5173747;27;41703;-76
2023/06/16 09:32:26;;;;;;;3.97;3.67;;;;;;;35.40;21.66;99052.03;5171011;27;43347;-77
2023/06/16 09:34:54;;;;;;;4.50;4.10;;;;;;;36.28;21.51;99046.44;5174895;27;39924;-76
2023/06/16 09:37:22;;;;;;;3.80;3.50;;;;;;;37.43;21.37;99049.78;5175154;27;41731;-76
2023/06/16 09:39:49;;;;;;;3.88;3.60;;;;;;;38.42;19.83;99057.25;5157178;27;42941;-79
2023/06/16 09:42:18;;;;;;;4.28;3.65;;;;;;;39.03;18.98;99065.72;5175089;27;42281;-76
2023/06/16 09:44:46;;;;;;;4.20;3.80;;;;;;;37.91;19.42;99059.78;5176108;27;40837;-79
2023/06/16 09:47:15;;;;;;;4.93;4.00;;;;;;;37.47;19.63;99061.13;5174798;27;40715;-77
2023/06/16 09:49:45;;;;;;;5.22;3.75;;;;;;;38.53;18.71;99064.50;5156884;27;43167;-78
2023/06/16 09:52:13;;;;;;;5.15;3.80;;;;;;;40.00;17.83;99055.38;5156982;27;42582;-77
2023/06/16 09:54:41;;;;;;;3.72;3.42;;;;;;;41.35;17.09;99049.31;5174524;27;40739;-76
2023/06/16 09:57:08;;;;;;;3.42;3.13;;;;;;;42.52;16.85;99064.75;5174393;27;41118;-78
2023/06/16 09:59:36;;;;;;;5.35;3.50;;;;;;;42.87;16.18;99067.03;5173716;27;42978;-77
2023/06/16 10:02:05;;;;;;;3.58;3.33;;;;;;;42.34;15.72;99065.50;5172701;27;43180;-78
2023/06/16 10:04:35;;;;;;;4.03;3.70;;;;;;;40.61;16.71;99049.56;5173020;27;40715;-77
2023/06/16 10:07:07;;;;;;;3.92;3.63;;;;;;;39.54;17.39;99040.78;5174331;27;42570;-76
2023/06/16 10:09:41;;;;;;;3.47;3.20;;;;;;;38.90;18.01;99055.16;5170441;27;42687;-76
2023/06/16 10:12:12;;;;;;;3.45;3.15;;;;;;;38.46;18.66;99041.75;5170118;27;42255;-79
2023/06/16 10:14:41;;;;;;;3.47;3.28;;;;;;;38.01;18.82;99029.41;5155323;27;41631;-77
2023/06/16 10:17:11;;;;;;;3.92;3.10;;;;;;;37.78;18.29;99051.13;5154915;27;40939;-77
2023/06/16 10:19:47;;;;;;;4.68;4.28;;;;;;;37.34;18.83;99035.59;5172538;27;43134;-76
2023/06/16 10:22:16;;;;;;;3.72;3.42;;;;;;;36.98;19.11;99036.38;5169899;27;43695;-78
2023/06/16 10:24:44;;;;;;;3.50;3.20;;;;;;;36.22;19.08;99032.84;5155385;27;39377;-76
2023/06/16 10:27:13;;;;;;;3.83;3.53;;;;;;;35.54;20.14;99034.06;5172927;27;40724;-77
2023/06/16 10:29:42;;;;;;;3.60;3.30;;;;;;;35.32;20.35;99016.66;5173805;27;42726;-77
2023/06/16 10:32:11;;;;;;;4.53;3.73;;;;;;;35.20;20.15;99025.84;5174024;27;42247;-76
2023/06/16 10:34:49;;;;;;;4.37;3.97;;;;;;;35.35;21.12;99010.66;5173457;27;39167;-77
2023/06/16 10:37:18;;;;;;;6.23;3.53;;;;;;;35.48;20.57;99016.66;5171720;27;42526;-77
2023/06/16 10:39:47;;;;;;;4.20;3.17;;;;;;;35.44;21.12;99014.66;5173379;27;43769;-77
2023/06/16 10:42:16;;;;;;;5.60;3.00;;;;;;;35.46;21.13;98988.53;5174717;27;42252;-77
2023/06/16 10:44:44;;;;;;;4.00;3.30;;;;;;;35.61;20.49;99016.25;5173338;27;41111;-78
2023/06/16 10:47:30;;;;;;;3.60;3.30;;;;;;;35.58;20.33;99015.97;5156393;27;41776;-79
2023/06/16 10:50:02;;;;;;;3.17;2.87;;;;;;;35.58;21.23;98993.91;5172547;27;42784;-76
2023/06/16 10:52:54;;;;;;;3.67;3.20;;;;;;;35.45;20.73;99013.56;5156021;27;42665;-78
2023/06/16 10:55:31;;;;;;;3.77;3.10;;;;;;;35.17;20.56;99014.47;5173396;27;40269;-80
2023/06/16 10:58:26;;;;;;;4.03;3.53;;;;;;;34.90;20.75;99006.06;5174514;27;20204;-76
2023/06/16 11:00:59;;;;;;;3.53;3.23;;;;;;;35.02;21.21;99004.03;5172399;27;42789;-77
2023/06/16 11:03:31;;;;;;;6.00;3.40;;;;;;;35.12;21.47;99000.63;5168772;27;42405;-76
2023/06/16 11:06:04;;;;;;;4.80;2.93;;;;;;;34.73;20.63;98999.69;5154726;27;40165;-77
2023/06/16 11:08:32;;;;;;;7.57;3.63;;;;;;;34.22;21.34;99004.22;5171915;27;41030;-78
2023/06/16 11:11:06;;;;;;;3.30;3.00;;;;;;;34.05;21.88;99000.56;5172050;27;43818;-77
2023/06/16 11:13:35;;;;;;;3.60;3.00;;;;;;;33.67;21.99;98970.88;5172305;27;41131;-75
2023/06/16 11:16:04;;;;;;;3.60;3.30;;;;;;;33.96;22.93;98985.53;5154784;27;41214;-78
2023/06/16 11:18:33;;;;;;;3.43;3.13;;;;;;;34.14;22.70;98977.09;5154626;27;41780;-76
2023/06/16 11:21:06;;;;;;;4.23;3.60;;;;;;;34.34;23.73;98977.53;5171775;27;42510;-77
2023/06/16 11:23:34;;;;;;;4.20;3.90;;;;;;;34.57;23.07;98971.91;5169753;27;42601;-76
2023/06/16 11:26:07;;;;;;;2.97;2.77;;;;;;;34.86;22.08;98974.63;5171721;27;38985;-76
2023/06/16 11:28:38;;;;;;;5.40;2.77;;;;;;;35.06;21.34;98991.47;5170777;27;40914;-76
2023/06/16 11:31:07;;;;;;;5.83;3.27;;;;;;;34.90;21.41;98982.13;5172491;27;43851;-77
2023/06/16 11:33:35;;;;;;;4.50;3.13;;;;;;;34.89;21.82;98943.81;5154677;27;42181;-77
2023/06/16 11:36:17;;;;;;;3.50;3.20;;;;;;;35.40;22.43;98958.38;5172456;27;40320;-76
2023/06/16 11:38:46;;;;;;;4.37;3.10;;;;;;;35.57;21.63;98957.25;5169719;27;42580;-77
2023/06/16 11:41:18;;;;;;;3.07;2.77;;;;;;;35.89;21.67;98962.94;5155230;27;43020;-76
2023/06/16 11:43:46;;;;;;;3.27;3.00;;;;;;;36.24;20.90;98943.22;5169639;27;43942;-76
2023/06/16 11:46:15;;;;;;;4.13;3.07;;;;;;;36.69;21.00;98955.78;5172479;27;39119;-77